Latest Weather Observations for Terrey Hills

IDN60801

Issued at 11:03 pm EDT Friday 12 February 2016 (issued every 30 minutes, with the page automatically refreshed every 10 minutes)

About weather observations | Map of weather stations | Latest weather observations for NSW | Other Formats
Station Details ID: 066059 Name: TERREY HILLS AWS Lat: -33.69 Lon: 151.23 Height: 199.0 m
Data from the previous 72 hours. | See also: Recent months at Terrey Hills
Date/Time
EDT
Temp
°C
App
Temp
°C
Dew
Point
Rel
Hum
%
Delta-T
°C
Wind Press
QNH
hPa
Press
MSL
hPa
Rain
since 9 am
mm
Dir
 
Spd
km/h
Gust
km/h
Spd
kts
Gust
kts
12/11:00pm 21.5 23.5 20.0 91 1.0 ENE 9 22 5 12 - - 0.0
12/10:30pm 21.8 23.2 20.3 91 1.0 NE 13 26 7 14 - - 0.0
12/10:00pm 21.9 23.2 20.2 90 1.1 NE 13 28 7 15 - - 0.0
12/09:30pm 21.9 23.7 20.4 91 1.0 NE 11 20 6 11 - - 0.0
12/09:00pm 21.8 23.2 20.4 92 0.9 ENE 13 22 7 12 - - 0.0
12/08:30pm 21.9 23.3 20.4 91 1.0 ENE 13 19 7 10 - - 0.0
12/08:00pm 22.1 23.8 20.2 89 1.2 ENE 11 20 6 11 - - 0.0
12/07:30pm 22.6 24.1 20.5 88 1.4 ENE 13 26 7 14 - - 0.0
12/07:00pm 23.3 24.3 20.2 83 2.0 ENE 15 22 8 12 - - 0.0
12/06:30pm 23.9 25.1 20.0 79 2.5 ENE 13 22 7 12 - - 0.0
12/06:00pm 24.4 26.1 20.1 77 2.8 E 11 19 6 10 - - 0.0
12/05:30pm 25.1 25.9 19.9 73 3.4 ENE 15 26 8 14 - - 0.0
12/05:00pm 25.1 26.2 20.4 75 3.1 E 15 22 8 12 - - 0.0
12/04:30pm 25.1 26.2 20.4 75 3.1 ESE 15 24 8 13 - - 0.0
12/04:00pm 25.3 25.6 19.7 71 3.6 E 17 24 9 13 - - 0.0
12/03:30pm 26.0 26.1 19.2 66 4.4 ENE 17 24 9 13 - - 0.0
12/03:00pm 26.2 26.0 18.6 63 4.9 ENE 17 24 9 13 - - 0.0
12/02:30pm 26.7 26.3 18.0 59 5.5 E 17 24 9 13 - - 0.0
12/02:00pm 26.9 26.9 18.2 59 5.6 ENE 15 24 8 13 - - 0.0
12/01:30pm 27.0 26.6 18.0 58 5.7 ENE 17 24 9 13 - - 0.0
12/01:00pm 27.3 29.1 19.6 62 5.0 NE 9 17 5 9 - - 0.0
12/12:30pm 26.9 26.7 18.5 60 5.4 ENE 17 26 9 14 - - 0.0
12/12:00pm 26.8 28.2 18.6 60 5.3 NE 9 19 5 10 - - 0.0
12/11:30am 26.8 28.3 18.9 62 5.1 ENE 9 19 5 10 - - 0.0
12/11:00am 24.9 27.1 19.7 73 3.4 NNW 7 9 4 5 - - 0.0
12/10:30am 24.1 26.7 19.2 74 3.2 NW 4 9 2 5 - - 0.0
12/10:00am 23.7 25.4 18.6 73 3.2 NNW 7 13 4 7 - - 0.0
12/09:30am 23.3 25.2 19.0 77 2.8 N 7 11 4 6 - - 0.0
12/09:00am 23.5 26.0 19.8 80 2.4 N 6 9 3 5 - - 0.0
12/08:30am 22.4 25.3 19.8 85 1.7 NW 4 7 2 4 - - 0.0
12/08:00am 21.5 24.9 20.1 92 0.9 WNW 2 6 1 3 - - 0.0
12/07:30am 20.8 24.4 20.5 98 0.2 NW 2 4 1 2 - - 0.0
12/07:00am 19.6 22.6 19.3 98 0.2 NW 2 4 1 2 - - 0.0
12/06:30am 20.0 22.7 19.5 97 0.3 NNW 4 6 2 3 - - 0.0
12/06:00am 20.2 22.7 19.9 98 0.2 N 6 7 3 4 - - 0.0
12/05:30am 19.9 22.6 19.4 97 0.3 NNW 4 6 2 3 - - 0.0
12/05:00am 20.4 22.9 19.9 97 0.3 N 6 6 3 3 - - 0.0
12/04:30am 20.4 23.3 19.9 97 0.3 NNW 4 4 2 2 - - 0.0
12/04:00am 20.7 23.8 20.2 97 0.3 NNW 4 6 2 3 - - 0.0
12/03:30am 20.5 23.5 20.0 97 0.3 NNW 4 6 2 3 - - 0.0
12/03:00am 21.1 24.2 20.3 95 0.5 NNW 4 6 2 3 - - 0.0
12/02:30am 21.1 24.3 20.4 96 0.5 NNE 4 6 2 3 - - 0.0
12/02:00am 21.1 24.2 20.3 95 0.5 NE 4 6 2 3 - - 0.0
12/01:30am 21.3 24.4 20.3 94 0.6 NNE 4 7 2 4 - - 0.0
12/01:00am 21.6 24.2 20.4 93 0.8 ENE 7 15 4 8 - - 0.0
12/12:30am 21.0 23.3 19.8 93 0.8 ENE 7 13 4 7 - - 0.0
12/12:00am 21.1 24.0 19.9 93 0.8 ENE 4 6 2 3 - - 0.0
 
Date/Time
EDT
Temp
°C
App
Temp
°C
Dew
Point
Rel
Hum
%
Delta-T
°C
Wind Press
QNH
hPa
Press
MSL
hPa
Rain
since 9 am
mm
Dir
 
Spd
km/h
Gust
km/h
Spd
kts
Gust
kts
11/11:30pm 21.4 23.7 19.9 91 1.0 ENE 7 11 4 6 - - 0.0
11/11:00pm 21.6 23.7 20.1 91 1.0 ENE 9 11 5 6 - - 0.0
11/10:30pm 21.9 24.4 20.2 90 1.1 E 7 11 4 6 - - 0.0
11/10:00pm 22.0 24.0 19.9 88 1.4 E 9 15 5 8 - - 0.0
11/09:30pm 22.1 23.0 20.0 88 1.4 E 15 24 8 13 - - 0.0
11/09:00pm 22.2 24.3 20.1 88 1.4 E 9 17 5 9 - - 0.0
11/08:30pm 22.3 23.5 20.0 87 1.5 ENE 13 19 7 10 - - 0.0
11/08:00pm 22.4 24.6 19.6 84 1.8 ENE 7 15 4 8 - - 0.0
11/07:30pm 22.6 24.6 19.9 85 1.7 E 9 17 5 9 - - 0.0
11/07:00pm 22.7 24.3 20.0 85 1.8 ENE 11 20 6 11 - - 0.0
11/06:30pm 22.8 24.8 20.0 84 1.8 E 9 17 5 9 - - 0.0
11/06:00pm 22.9 24.6 19.3 80 2.3 E 9 17 5 9 - - 0.0
11/05:30pm 23.3 24.1 19.0 77 2.8 E 13 19 7 10 - - 0.0
11/05:00pm 24.3 24.7 18.9 72 3.5 E 15 24 8 13 - - 0.0
11/04:30pm 24.6 24.6 19.0 71 3.6 E 17 30 9 16 - - 0.0
11/04:00pm 24.7 24.8 19.1 71 3.6 E 17 22 9 12 - - 0.0
11/03:30pm 25.3 25.5 18.5 66 4.3 E 15 28 8 15 - - 0.0
11/03:00pm 25.5 25.0 17.9 63 4.8 E 17 30 9 16 - - 0.0
11/02:30pm 26.7 27.0 18.0 59 5.5 E 13 20 7 11 - - 0.0
11/02:00pm 26.4 26.2 16.6 55 6.1 ENE 13 28 7 15 - - 0.0
11/01:30pm 26.5 26.8 17.8 58 5.5 NE 13 22 7 12 - - 0.0
11/01:00pm 26.2 27.3 18.1 61 5.2 NE 9 17 5 9 - - 0.0
11/12:30pm 25.8 26.2 18.2 63 4.8 ENE 13 28 7 15 - - 0.0
11/12:00pm 25.7 27.0 18.4 64 4.7 ENE 9 19 5 10 - - 0.0
11/11:30am 25.6 26.3 18.8 66 4.4 NE 13 24 7 13 - - 0.0
11/11:00am 24.6 25.7 18.8 70 3.7 NE 11 22 6 12 - - 0.0
11/10:30am 24.8 26.1 18.5 68 4.0 NE 9 20 5 11 - - 0.0
11/10:00am 24.1 25.1 17.8 68 4.0 NNE 9 15 5 8 - - 0.0
11/09:30am 24.0 25.5 18.9 73 3.3 NE 9 17 5 9 - - 0.0
11/09:00am 23.1 24.8 18.6 76 2.9 NE 7 15 4 8 - - 0.0
11/08:30am 22.1 24.5 18.7 81 2.2 N 4 6 2 3 - - 0.0
11/08:00am 21.2 23.2 18.8 86 1.5 N 6 9 3 5 - - 0.0
11/07:30am 20.4 22.4 18.7 90 1.1 N 6 7 3 4 - - 0.0
11/07:00am 19.9 21.7 18.7 93 0.8 NNE 7 13 4 7 - - 0.0
11/06:30am 19.5 20.9 18.7 95 0.5 N 9 13 5 7 - - 0.0
11/06:00am 19.6 21.1 18.9 96 0.4 NNE 9 15 5 8 - - 0.0
11/05:30am 19.6 21.1 18.9 96 0.4 N 9 15 5 8 - - 0.0
11/05:00am 19.7 20.8 18.9 95 0.5 NNE 11 17 6 9 - - 0.0
11/04:30am 19.7 20.8 18.9 95 0.5 NNE 11 17 6 9 - - 0.0
11/04:00am 19.8 21.0 19.0 95 0.5 NNE 11 17 6 9 - - 0.0
11/03:30am 19.8 21.3 19.0 95 0.5 NNE 9 13 5 7 - - 0.0
11/03:00am 19.7 21.7 18.7 94 0.6 NNE 6 11 3 6 - - 0.0
11/02:30am 19.7 21.7 18.7 94 0.6 NNE 6 11 3 6 - - 0.0
11/02:00am 19.9 21.6 18.6 92 0.8 NE 7 17 4 9 - - 0.0
11/01:30am 20.2 21.5 18.5 90 1.1 NNE 9 19 5 10 - - 0.0
11/01:00am 20.0 21.5 18.1 89 1.2 NE 7 13 4 7 - - 0.0
11/12:30am 20.1 21.7 18.2 89 1.2 NE 7 15 4 8 - - 0.0
11/12:00am 20.3 21.8 18.1 87 1.4 NNE 7 13 4 7 - - 0.0
 
Date/Time
EDT
Temp
°C
App
Temp
°C
Dew
Point
Rel
Hum
%
Delta-T
°C
Wind Press
QNH
hPa
Press
MSL
hPa
Rain
since 9 am
mm
Dir
 
Spd
km/h
Gust
km/h
Spd
kts
Gust
kts
10/11:30pm 20.4 21.5 18.0 86 1.5 NE 9 17 5 9 - - 0.0
10/11:00pm 20.7 21.5 18.1 85 1.6 NNE 11 20 6 11 - - 0.0
10/10:30pm 20.8 21.1 18.0 84 1.7 NNE 13 19 7 10 - - 0.0
10/10:00pm 20.9 21.2 17.9 83 1.9 NNE 13 24 7 13 - - 0.0
10/09:30pm 21.0 21.7 18.0 83 1.9 NNE 11 20 6 11 - - 0.0
10/09:00pm 21.0 21.7 18.0 83 1.9 NNE 11 20 6 11 - - 0.0
10/08:30pm 21.1 22.2 18.1 83 1.9 NNE 9 17 5 9 - - 0.0
10/08:00pm 21.2 22.3 18.8 86 1.5 NNE 11 19 6 10 - - 0.0
10/07:30pm 21.6 22.4 19.0 85 1.7 NE 13 20 7 11 - - 0.0
10/07:00pm 22.3 23.1 19.1 82 2.0 NNE 13 24 7 13 - - 0.0
10/06:30pm 22.9 23.6 18.9 78 2.6 NE 13 26 7 14 - - 0.0
10/06:00pm 23.6 24.3 18.9 75 3.0 NE 13 24 7 13 - - 0.0
10/05:30pm 24.2 24.6 18.2 69 3.8 NNE 13 24 7 13 - - 0.0
10/05:00pm 24.4 25.1 17.9 67 4.1 NE 11 22 6 12 - - 0.0
10/04:30pm 24.8 25.5 18.0 66 4.3 NE 11 19 6 10 - - 0.0
10/04:00pm 25.1 26.2 18.8 68 4.0 NNE 11 20 6 11 - - 0.0
10/03:30pm 25.5 26.1 17.7 62 4.9 NNE 11 22 6 12 - - 0.0
10/03:00pm 25.9 26.7 17.3 59 5.4 NNE 9 17 5 9 - - 0.0
10/02:30pm 26.3 26.9 17.6 58 5.5 NE 11 20 6 11 - - 0.0
10/02:00pm 26.0 25.7 17.4 59 5.4 ENE 15 26 8 14 - - 0.0
10/01:30pm 26.0 26.6 18.7 64 4.7 ENE 13 22 7 12 - - 0.0
10/01:00pm 26.2 26.8 15.9 53 6.3 N 7 13 4 7 - - 0.0
10/12:30pm 25.9 26.6 16.2 55 6.0 NNW 7 13 4 7 - - 0.0
10/12:00pm 25.6 26.7 16.7 58 5.5 NNW 6 13 3 7 - - 0.0
10/11:30am 25.1 26.0 16.0 57 5.6 NNW 6 11 3 6 - - 0.0
10/11:00am 24.3 25.9 17.8 67 4.1 NNW 6 11 3 6 - - 0.0
10/10:30am 23.3 24.8 18.0 72 3.3 NNW 7 13 4 7 - - 0.0
10/10:00am 22.6 23.6 17.7 74 3.1 N 9 15 5 8 - - 0.0
10/09:30am 22.3 23.8 18.1 77 2.6 N 7 15 4 8 - - 0.0
10/09:00am 22.0 24.1 19.0 83 1.9 NW 6 11 3 6 - - 0.0
10/08:30am 21.2 23.4 19.3 89 1.2 NW 6 13 3 7 - - 0.0
10/08:00am 19.9 22.1 19.1 95 0.5 WNW 6 9 3 5 - - 0.0
10/07:30am 18.7 20.7 18.7 100 0.0 WNW 6 7 3 4 - - 0.0
10/07:00am 17.8 19.4 17.8 100 0.0 WNW 6 7 3 4 - - 0.0
10/06:30am 17.3 18.7 17.3 100 0.0 WNW 6 7 3 4 - - 0.0
10/06:00am 17.4 18.8 17.4 100 0.0 WNW 6 7 3 4 - - 0.0
10/05:30am 17.6 19.1 17.6 100 0.0 WNW 6 7 3 4 - - 0.0
10/05:00am 17.7 19.2 17.7 100 0.0 WNW 6 7 3 4 - - 0.0
10/04:30am 18.3 20.4 18.1 99 0.1 WNW 4 6 2 3 - - 0.0
10/04:00am 18.8 21.1 18.6 99 0.1 NW 4 4 2 2 - - 0.0
10/03:30am 19.0 21.5 19.0 100 0.0 WNW 4 6 2 3 - - 0.0
10/03:00am 18.7 20.7 18.7 100 0.0 WNW 6 6 3 3 - - 0.0
10/02:30am 18.7 21.4 18.7 100 0.0 W 2 4 1 2 - - 0.0
10/02:00am 18.5 20.4 18.5 100 0.0 W 6 6 3 3 - - 0.0
10/01:30am 18.7 20.6 18.5 99 0.1 WNW 6 6 3 3 - - 0.0
10/01:00am 19.0 22.1 18.7 98 0.2 CALM 0 0 0 0 - - 0.0
10/12:30am 19.3 22.6 19.1 99 0.1 CALM 0 0 0 0 - - 0.0
10/12:00am 19.2 22.4 18.9 98 0.2 CALM 0 0 0 0 - - 0.0
 
Date/Time
EDT
Temp
°C
App
Temp
°C
Dew
Point
Rel
Hum
%
Delta-T
°C
Wind Press
QNH
hPa
Press
MSL
hPa
Rain
since 9 am
mm
Dir
 
Spd
km/h
Gust
km/h
Spd
kts
Gust
kts
09/11:30pm 19.1 22.2 18.6 97 0.3 CALM 0 2 0 1 - - 0.0

Other Formats:

Comma delimited format used in spreadsheet applications
http://www.bom.gov.au/fwo/IDN60801/IDN60801.94759.axf

JavaScript Object Notation format (JSON) in row-major order
http://www.bom.gov.au/fwo/IDN60801/IDN60801.94759.json